Startpagina
METAR-TAF:

METAR-TAF

Vliegvelden :

Maastricht Aachen Airport

Maastricht Aken, Nederland

breedte: 50-55N, lengte: 005-47E, hoogte: 114 m

Actueel weer

Dit bericht is 30 minuten geleden gemaakt, om 13:25 UTC
Wind 4 kt uit het oostnoordoosten, variërend tussen het noordnoordoosten en het zuidzuidoosten
Temperatuur 9°C
Vochtigheid 71%
Druk 1027 hPa
Zicht 10 km of meer

METAR: EHBK 161325Z AUTO 06004KT 020V150 9999 NCD 09/04 Q1027 NOSIG

Tijdstip: 14:55 (13:55 UTC)

Verwachting

Dit bericht is 2 uur en het 46 minuten geleden gemaakt, om 11:09 UTC
Verwachting geldig van 16 om 12 UTC tot 17 om 18 UTC
Wind 3 kt uit variabele richting
Zicht 10 km of meer
geen wolken onder 1500 m en geen cumulonimbus
Wijzigt naar
van 16 om 16 UTC tot 16 om 19 UTC
Wind 10 kt uit het oosten

TAF: EHBK 161109Z 1612/1718 VRB03KT CAVOK BECMG 1616/1619 09010KT

Waarnemingen en weersverwachtingen van meer dan 4000 vliegvelden (METAR en TAF).

De beschikbare stations zijn de gele en rode punten op de kaart.

Ga met uw muis naar het station om de naam te zien.

Klik dan om waarnemingen en weersverwachtingen te zien.

kaart wijzigen: klik op de groene knoppen met een zwart kruis om in te zoomen, op de groene knop met een streepje om uit te zoomen of op de groene pijlen voor aangrenzende kaarten.


METAR-TAF: